sensor_id;sensor_type;location;lat;lon;timestamp;P1;durP1;ratioP1;P2;durP2;ratioP2
29210;SDS011;16250;49.932;10.980;2022-07-29T00:01:39;7.75;;;3.58;;
29210;SDS011;16250;49.932;10.980;2022-07-29T00:04:05;9.10;;;3.70;;
29210;SDS011;16250;49.932;10.980;2022-07-29T00:06:31;7.97;;;3.80;;
29210;SDS011;16250;49.932;10.980;2022-07-29T00:08:56;8.73;;;3.58;;
29210;SDS011;16250;49.932;10.980;2022-07-29T00:11:22;7.13;;;3.63;;
29210;SDS011;16250;49.932;10.980;2022-07-29T00:13:47;6.07;;;3.60;;
29210;SDS011;16250;49.932;10.980;2022-07-29T00:16:13;8.02;;;3.50;;
29210;SDS011;16250;49.932;10.980;2022-07-29T00:18:38;5.82;;;3.60;;
29210;SDS011;16250;49.932;10.980;2022-07-29T00:21:04;6.68;;;3.65;;
29210;SDS011;16250;49.932;10.980;2022-07-29T00:23:29;7.15;;;3.08;;
29210;SDS011;16250;49.932;10.980;2022-07-29T00:25:55;7.30;;;3.30;;
29210;SDS011;16250;49.932;10.980;2022-07-29T00:28:21;9.40;;;3.30;;
29210;SDS011;16250;49.932;10.980;2022-07-29T00:30:46;6.63;;;3.08;;
29210;SDS011;16250;49.932;10.980;2022-07-29T00:33:12;8.23;;;3.35;;
29210;SDS011;16250;49.932;10.980;2022-07-29T00:35:37;4.70;;;3.35;;
29210;SDS011;16250;49.932;10.980;2022-07-29T00:38:12;7.07;;;2.70;;
29210;SDS011;16250;49.932;10.980;2022-07-29T00:40:39;4.72;;;2.67;;
29210;SDS011;16250;49.932;10.980;2022-07-29T00:43:05;6.30;;;3.35;;
29210;SDS011;16250;49.932;10.980;2022-07-29T00:45:31;5.68;;;2.53;;
29210;SDS011;16250;49.932;10.980;2022-07-29T00:47:56;6.03;;;3.25;;
29210;SDS011;16250;49.932;10.980;2022-07-29T00:50:23;5.30;;;2.72;;
29210;SDS011;16250;49.932;10.980;2022-07-29T00:52:49;5.03;;;2.60;;
29210;SDS011;16250;49.932;10.980;2022-07-29T00:55:16;6.10;;;2.88;;
29210;SDS011;16250;49.932;10.980;2022-07-29T00:57:42;7.60;;;3.13;;
29210;SDS011;16250;49.932;10.980;2022-07-29T01:00:10;6.18;;;2.65;;
29210;SDS011;16250;49.932;10.980;2022-07-29T01:02:38;5.40;;;2.70;;
29210;SDS011;16250;49.932;10.980;2022-07-29T01:05:03;4.53;;;2.55;;
29210;SDS011;16250;49.932;10.980;2022-07-29T01:07:30;6.20;;;2.50;;
29210;SDS011;16250;49.932;10.980;2022-07-29T01:09:58;5.57;;;3.05;;
29210;SDS011;16250;49.932;10.980;2022-07-29T01:12:27;4.68;;;2.60;;
29210;SDS011;16250;49.932;10.980;2022-07-29T01:14:57;4.18;;;2.47;;
29210;SDS011;16250;49.932;10.980;2022-07-29T01:17:26;4.20;;;2.55;;
29210;SDS011;16250;49.932;10.980;2022-07-29T01:28:39;4.70;;;2.35;;
29210;SDS011;16250;49.932;10.980;2022-07-29T01:32:11;3.78;;;2.08;;
29210;SDS011;16250;49.932;10.980;2022-07-29T01:34:41;5.20;;;2.28;;
29210;SDS011;16250;49.932;10.980;2022-07-29T01:39:52;6.18;;;2.13;;
29210;SDS011;16250;49.932;10.980;2022-07-29T01:42:29;6.47;;;2.42;;
29210;SDS011;16250;49.932;10.980;2022-07-29T01:45:02;5.15;;;2.60;;
29210;SDS011;16250;49.932;10.980;2022-07-29T01:47:44;3.78;;;2.38;;
29210;SDS011;16250;49.932;10.980;2022-07-29T01:50:19;5.18;;;2.17;;
29210;SDS011;16250;49.932;10.980;2022-07-29T01:52:56;4.68;;;2.28;;
29210;SDS011;16250;49.932;10.980;2022-07-29T01:55:27;6.35;;;2.42;;
29210;SDS011;16250;49.932;10.980;2022-07-29T01:57:56;4.00;;;2.40;;
29210;SDS011;16250;49.932;10.980;2022-07-29T02:00:23;4.45;;;2.35;;
29210;SDS011;16250;49.932;10.980;2022-07-29T02:02:51;4.97;;;2.25;;
29210;SDS011;16250;49.932;10.980;2022-07-29T02:05:20;6.72;;;2.33;;
29210;SDS011;16250;49.932;10.980;2022-07-29T02:07:48;3.97;;;2.33;;
29210;SDS011;16250;49.932;10.980;2022-07-29T02:10:17;5.15;;;2.38;;
29210;SDS011;16250;49.932;10.980;2022-07-29T02:12:45;2.95;;;2.10;;
29210;SDS011;16250;49.932;10.980;2022-07-29T02:15:13;3.80;;;2.22;;
29210;SDS011;16250;49.932;10.980;2022-07-29T02:17:42;5.13;;;2.20;;
29210;SDS011;16250;49.932;10.980;2022-07-29T02:20:10;3.75;;;2.28;;
29210;SDS011;16250;49.932;10.980;2022-07-29T02:22:37;6.65;;;2.72;;
29210;SDS011;16250;49.932;10.980;2022-07-29T02:25:05;4.63;;;2.45;;
29210;SDS011;16250;49.932;10.980;2022-07-29T02:27:33;4.53;;;2.40;;
29210;SDS011;16250;49.932;10.980;2022-07-29T02:30:00;4.45;;;2.50;;
29210;SDS011;16250;49.932;10.980;2022-07-29T02:32:27;5.93;;;2.60;;
29210;SDS011;16250;49.932;10.980;2022-07-29T02:34:54;4.47;;;2.50;;
29210;SDS011;16250;49.932;10.980;2022-07-29T02:37:21;4.60;;;2.65;;
29210;SDS011;16250;49.932;10.980;2022-07-29T02:39:48;5.28;;;2.30;;
29210;SDS011;16250;49.932;10.980;2022-07-29T02:42:16;6.80;;;2.55;;
29210;SDS011;16250;49.932;10.980;2022-07-29T02:44:43;5.07;;;2.60;;
29210;SDS011;16250;49.932;10.980;2022-07-29T02:47:16;2.90;;;2.08;;
29210;SDS011;16250;49.932;10.980;2022-07-29T02:52:24;3.25;;;2.40;;
29210;SDS011;16250;49.932;10.980;2022-07-29T02:57:43;5.03;;;2.92;;
29210;SDS011;16250;49.932;10.980;2022-07-29T03:00:14;8.73;;;2.65;;
29210;SDS011;16250;49.932;10.980;2022-07-29T03:02:42;5.35;;;2.53;;
29210;SDS011;16250;49.932;10.980;2022-07-29T03:05:11;4.60;;;2.25;;
29210;SDS011;16250;49.932;10.980;2022-07-29T03:07:40;4.05;;;2.03;;
29210;SDS011;16250;49.932;10.980;2022-07-29T03:10:08;6.55;;;2.60;;
29210;SDS011;16250;49.932;10.980;2022-07-29T03:12:34;4.80;;;2.30;;
29210;SDS011;16250;49.932;10.980;2022-07-29T03:15:00;5.18;;;1.90;;
29210;SDS011;16250;49.932;10.980;2022-07-29T03:17:27;4.10;;;2.13;;
29210;SDS011;16250;49.932;10.980;2022-07-29T03:19:52;3.58;;;2.28;;
29210;SDS011;16250;49.932;10.980;2022-07-29T03:22:19;3.75;;;2.17;;
29210;SDS011;16250;49.932;10.980;2022-07-29T03:24:45;5.53;;;2.05;;
29210;SDS011;16250;49.932;10.980;2022-07-29T03:27:11;3.42;;;1.98;;
29210;SDS011;16250;49.932;10.980;2022-07-29T03:29:36;3.97;;;2.10;;
29210;SDS011;16250;49.932;10.980;2022-07-29T03:32:03;3.80;;;2.00;;
29210;SDS011;16250;49.932;10.980;2022-07-29T03:34:29;3.45;;;1.95;;
29210;SDS011;16250;49.932;10.980;2022-07-29T03:36:55;3.85;;;2.00;;
29210;SDS011;16250;49.932;10.980;2022-07-29T03:39:22;5.57;;;2.28;;
29210;SDS011;16250;49.932;10.980;2022-07-29T03:41:49;5.30;;;1.80;;
29210;SDS011;16250;49.932;10.980;2022-07-29T03:44:19;3.10;;;2.00;;
29210;SDS011;16250;49.932;10.980;2022-07-29T03:46:46;6.05;;;2.13;;
29210;SDS011;16250;49.932;10.980;2022-07-29T03:49:14;5.13;;;1.90;;
29210;SDS011;16250;49.932;10.980;2022-07-29T03:51:41;2.88;;;1.90;;
29210;SDS011;16250;49.932;10.980;2022-07-29T03:54:08;2.42;;;1.90;;
29210;SDS011;16250;49.932;10.980;2022-07-29T03:56:34;4.30;;;1.90;;
29210;SDS011;16250;49.932;10.980;2022-07-29T03:59:02;6.72;;;2.20;;
29210;SDS011;16250;49.932;10.980;2022-07-29T04:01:29;6.45;;;2.15;;
29210;SDS011;16250;49.932;10.980;2022-07-29T04:03:57;5.13;;;2.05;;
29210;SDS011;16250;49.932;10.980;2022-07-29T04:06:24;6.97;;;2.72;;
29210;SDS011;16250;49.932;10.980;2022-07-29T04:08:50;5.18;;;2.05;;
29210;SDS011;16250;49.932;10.980;2022-07-29T04:11:16;3.85;;;2.15;;
29210;SDS011;16250;49.932;10.980;2022-07-29T04:13:42;4.93;;;2.05;;
29210;SDS011;16250;49.932;10.980;2022-07-29T04:16:07;5.15;;;1.95;;
29210;SDS011;16250;49.932;10.980;2022-07-29T04:18:33;3.42;;;1.60;;
29210;SDS011;16250;49.932;10.980;2022-07-29T04:20:58;4.15;;;1.95;;
29210;SDS011;16250;49.932;10.980;2022-07-29T04:23:25;2.65;;;2.10;;
29210;SDS011;16250;49.932;10.980;2022-07-29T04:25:52;7.78;;;2.40;;
29210;SDS011;16250;49.932;10.980;2022-07-29T04:28:17;5.32;;;2.00;;
29210;SDS011;16250;49.932;10.980;2022-07-29T04:30:43;9.07;;;2.13;;
29210;SDS011;16250;49.932;10.980;2022-07-29T04:33:08;2.90;;;2.13;;
29210;SDS011;16250;49.932;10.980;2022-07-29T04:35:35;3.72;;;1.90;;
29210;SDS011;16250;49.932;10.980;2022-07-29T04:38:02;5.30;;;2.00;;
29210;SDS011;16250;49.932;10.980;2022-07-29T04:40:28;4.20;;;2.35;;
29210;SDS011;16250;49.932;10.980;2022-07-29T04:42:54;5.22;;;2.13;;
29210;SDS011;16250;49.932;10.980;2022-07-29T04:45:20;5.00;;;2.40;;
29210;SDS011;16250;49.932;10.980;2022-07-29T04:47:46;3.83;;;2.30;;
29210;SDS011;16250;49.932;10.980;2022-07-29T04:50:11;6.18;;;2.13;;
29210;SDS011;16250;49.932;10.980;2022-07-29T04:52:37;5.43;;;2.60;;
29210;SDS011;16250;49.932;10.980;2022-07-29T04:55:03;4.35;;;2.13;;
29210;SDS011;16250;49.932;10.980;2022-07-29T04:57:29;2.85;;;1.98;;
29210;SDS011;16250;49.932;10.980;2022-07-29T04:59:55;3.78;;;2.30;;
29210;SDS011;16250;49.932;10.980;2022-07-29T05:02:20;3.97;;;2.30;;
29210;SDS011;16250;49.932;10.980;2022-07-29T05:04:46;5.15;;;2.17;;
29210;SDS011;16250;49.932;10.980;2022-07-29T05:07:12;4.47;;;2.30;;
29210;SDS011;16250;49.932;10.980;2022-07-29T05:09:39;5.28;;;2.20;;
29210;SDS011;16250;49.932;10.980;2022-07-29T05:12:05;3.55;;;2.33;;
29210;SDS011;16250;49.932;10.980;2022-07-29T05:14:31;4.68;;;2.42;;
29210;SDS011;16250;49.932;10.980;2022-07-29T05:16:57;5.07;;;2.33;;
29210;SDS011;16250;49.932;10.980;2022-07-29T05:19:22;5.18;;;2.58;;
29210;SDS011;16250;49.932;10.980;2022-07-29T05:21:48;5.85;;;2.45;;
29210;SDS011;16250;49.932;10.980;2022-07-29T05:24:14;4.55;;;2.30;;
29210;SDS011;16250;49.932;10.980;2022-07-29T05:26:39;4.07;;;2.40;;
29210;SDS011;16250;49.932;10.980;2022-07-29T05:29:05;3.60;;;2.40;;
29210;SDS011;16250;49.932;10.980;2022-07-29T05:31:31;6.00;;;2.03;;
29210;SDS011;16250;49.932;10.980;2022-07-29T05:33:56;2.85;;;2.15;;
29210;SDS011;16250;49.932;10.980;2022-07-29T05:36:22;5.10;;;2.53;;
29210;SDS011;16250;49.932;10.980;2022-07-29T05:38:48;7.90;;;2.58;;
29210;SDS011;16250;49.932;10.980;2022-07-29T05:41:13;5.68;;;2.38;;
29210;SDS011;16250;49.932;10.980;2022-07-29T05:43:39;4.70;;;2.17;;
29210;SDS011;16250;49.932;10.980;2022-07-29T05:46:05;5.60;;;2.70;;
29210;SDS011;16250;49.932;10.980;2022-07-29T05:48:30;4.38;;;2.17;;
29210;SDS011;16250;49.932;10.980;2022-07-29T05:50:56;4.80;;;2.10;;
29210;SDS011;16250;49.932;10.980;2022-07-29T05:53:21;5.88;;;2.22;;
29210;SDS011;16250;49.932;10.980;2022-07-29T05:55:47;4.10;;;2.00;;
29210;SDS011;16250;49.932;10.980;2022-07-29T05:58:14;4.15;;;2.55;;
29210;SDS011;16250;49.932;10.980;2022-07-29T06:00:40;3.50;;;2.17;;
29210;SDS011;16250;49.932;10.980;2022-07-29T06:03:06;3.78;;;2.22;;
29210;SDS011;16250;49.932;10.980;2022-07-29T06:05:31;4.57;;;2.42;;
29210;SDS011;16250;49.932;10.980;2022-07-29T06:07:57;5.78;;;2.40;;
29210;SDS011;16250;49.932;10.980;2022-07-29T06:10:22;5.30;;;3.13;;
29210;SDS011;16250;49.932;10.980;2022-07-29T06:12:48;4.38;;;2.58;;
29210;SDS011;16250;49.932;10.980;2022-07-29T06:15:13;4.03;;;2.40;;
29210;SDS011;16250;49.932;10.980;2022-07-29T06:17:40;6.55;;;2.42;;
29210;SDS011;16250;49.932;10.980;2022-07-29T06:20:06;6.53;;;2.47;;
29210;SDS011;16250;49.932;10.980;2022-07-29T06:22:32;4.32;;;2.33;;
29210;SDS011;16250;49.932;10.980;2022-07-29T06:24:57;4.88;;;2.63;;
29210;SDS011;16250;49.932;10.980;2022-07-29T06:27:23;3.08;;;2.45;;
29210;SDS011;16250;49.932;10.980;2022-07-29T06:29:48;5.93;;;1.90;;
29210;SDS011;16250;49.932;10.980;2022-07-29T06:32:14;4.95;;;2.20;;
29210;SDS011;16250;49.932;10.980;2022-07-29T06:34:39;3.15;;;2.20;;
29210;SDS011;16250;49.932;10.980;2022-07-29T06:37:06;3.20;;;2.22;;
29210;SDS011;16250;49.932;10.980;2022-07-29T06:39:33;6.70;;;2.55;;
29210;SDS011;16250;49.932;10.980;2022-07-29T06:42:01;4.40;;;2.15;;
29210;SDS011;16250;49.932;10.980;2022-07-29T06:44:28;6.10;;;2.20;;
29210;SDS011;16250;49.932;10.980;2022-07-29T06:46:54;4.00;;;2.40;;
29210;SDS011;16250;49.932;10.980;2022-07-29T06:49:20;6.90;;;2.10;;
29210;SDS011;16250;49.932;10.980;2022-07-29T06:51:46;4.22;;;2.10;;
29210;SDS011;16250;49.932;10.980;2022-07-29T06:54:12;2.58;;;2.10;;
29210;SDS011;16250;49.932;10.980;2022-07-29T06:56:38;2.70;;;2.13;;
29210;SDS011;16250;49.932;10.980;2022-07-29T06:59:07;4.82;;;2.40;;
29210;SDS011;16250;49.932;10.980;2022-07-29T07:01:34;3.78;;;2.65;;
29210;SDS011;16250;49.932;10.980;2022-07-29T07:04:01;6.32;;;2.30;;
29210;SDS011;16250;49.932;10.980;2022-07-29T07:06:27;4.60;;;2.30;;
29210;SDS011;16250;49.932;10.980;2022-07-29T07:08:53;6.40;;;2.88;;
29210;SDS011;16250;49.932;10.980;2022-07-29T07:11:18;6.85;;;2.42;;
29210;SDS011;16250;49.932;10.980;2022-07-29T07:13:44;4.57;;;2.30;;
29210;SDS011;16250;49.932;10.980;2022-07-29T07:16:09;4.50;;;2.55;;
29210;SDS011;16250;49.932;10.980;2022-07-29T07:18:35;4.25;;;2.53;;
29210;SDS011;16250;49.932;10.980;2022-07-29T07:21:00;8.93;;;2.55;;
29210;SDS011;16250;49.932;10.980;2022-07-29T07:23:26;4.15;;;2.40;;
29210;SDS011;16250;49.932;10.980;2022-07-29T07:25:52;4.82;;;2.60;;
29210;SDS011;16250;49.932;10.980;2022-07-29T07:28:18;4.35;;;2.88;;
29210;SDS011;16250;49.932;10.980;2022-07-29T07:30:44;6.82;;;2.92;;
29210;SDS011;16250;49.932;10.980;2022-07-29T07:33:10;6.47;;;2.80;;
29210;SDS011;16250;49.932;10.980;2022-07-29T07:35:36;5.53;;;2.55;;
29210;SDS011;16250;49.932;10.980;2022-07-29T07:38:01;5.30;;;2.30;;
29210;SDS011;16250;49.932;10.980;2022-07-29T07:40:27;4.97;;;2.55;;
29210;SDS011;16250;49.932;10.980;2022-07-29T07:42:53;3.88;;;2.80;;
29210;SDS011;16250;49.932;10.980;2022-07-29T07:45:18;5.35;;;3.00;;
29210;SDS011;16250;49.932;10.980;2022-07-29T07:47:44;4.68;;;2.95;;
29210;SDS011;16250;49.932;10.980;2022-07-29T07:50:10;2.92;;;2.30;;
29210;SDS011;16250;49.932;10.980;2022-07-29T07:52:45;6.28;;;2.80;;
29210;SDS011;16250;49.932;10.980;2022-07-29T07:55:16;4.68;;;2.60;;
29210;SDS011;16250;49.932;10.980;2022-07-29T07:57:41;4.22;;;2.72;;
29210;SDS011;16250;49.932;10.980;2022-07-29T08:00:07;5.40;;;2.75;;
29210;SDS011;16250;49.932;10.980;2022-07-29T08:02:33;4.57;;;2.70;;
29210;SDS011;16250;49.932;10.980;2022-07-29T08:04:59;5.72;;;3.30;;
29210;SDS011;16250;49.932;10.980;2022-07-29T08:07:25;5.38;;;2.65;;
29210;SDS011;16250;49.932;10.980;2022-07-29T08:09:50;3.28;;;2.60;;
29210;SDS011;16250;49.932;10.980;2022-07-29T08:12:16;4.40;;;2.90;;
29210;SDS011;16250;49.932;10.980;2022-07-29T08:14:41;3.35;;;2.45;;
29210;SDS011;16250;49.932;10.980;2022-07-29T08:17:07;5.20;;;3.00;;
29210;SDS011;16250;49.932;10.980;2022-07-29T08:19:32;7.40;;;2.85;;
29210;SDS011;16250;49.932;10.980;2022-07-29T08:21:58;5.95;;;3.35;;
29210;SDS011;16250;49.932;10.980;2022-07-29T08:24:24;4.93;;;2.90;;
29210;SDS011;16250;49.932;10.980;2022-07-29T08:27:07;6.25;;;2.70;;
29210;SDS011;16250;49.932;10.980;2022-07-29T08:29:34;4.70;;;3.10;;
29210;SDS011;16250;49.932;10.980;2022-07-29T08:32:00;5.70;;;3.58;;
29210;SDS011;16250;49.932;10.980;2022-07-29T08:34:26;4.72;;;3.03;;
29210;SDS011;16250;49.932;10.980;2022-07-29T08:36:51;5.07;;;2.97;;
29210;SDS011;16250;49.932;10.980;2022-07-29T08:39:17;5.85;;;3.30;;
29210;SDS011;16250;49.932;10.980;2022-07-29T08:41:42;6.57;;;3.72;;
29210;SDS011;16250;49.932;10.980;2022-07-29T08:44:08;5.25;;;3.22;;
29210;SDS011;16250;49.932;10.980;2022-07-29T08:46:36;3.92;;;2.90;;
29210;SDS011;16250;49.932;10.980;2022-07-29T08:49:03;7.30;;;3.35;;
29210;SDS011;16250;49.932;10.980;2022-07-29T08:51:29;7.32;;;3.10;;
29210;SDS011;16250;49.932;10.980;2022-07-29T08:53:58;4.13;;;3.00;;
29210;SDS011;16250;49.932;10.980;2022-07-29T08:56:24;6.13;;;3.20;;
29210;SDS011;16250;49.932;10.980;2022-07-29T08:58:51;5.22;;;3.22;;
29210;SDS011;16250;49.932;10.980;2022-07-29T09:01:17;7.82;;;3.42;;
29210;SDS011;16250;49.932;10.980;2022-07-29T09:03:47;5.85;;;3.78;;
29210;SDS011;16250;49.932;10.980;2022-07-29T09:06:14;5.88;;;3.50;;
29210;SDS011;16250;49.932;10.980;2022-07-29T09:08:42;5.35;;;3.28;;
29210;SDS011;16250;49.932;10.980;2022-07-29T09:11:08;4.88;;;3.40;;
29210;SDS011;16250;49.932;10.980;2022-07-29T09:13:35;4.68;;;3.30;;
29210;SDS011;16250;49.932;10.980;2022-07-29T09:16:00;5.07;;;3.22;;
29210;SDS011;16250;49.932;10.980;2022-07-29T09:21:02;6.75;;;3.60;;
29210;SDS011;16250;49.932;10.980;2022-07-29T09:26:28;5.30;;;3.00;;
29210;SDS011;16250;49.932;10.980;2022-07-29T09:28:55;4.68;;;3.42;;
29210;SDS011;16250;49.932;10.980;2022-07-29T09:31:26;6.18;;;3.00;;
29210;SDS011;16250;49.932;10.980;2022-07-29T09:33:58;5.60;;;3.38;;
29210;SDS011;16250;49.932;10.980;2022-07-29T09:36:25;5.45;;;3.50;;
29210;SDS011;16250;49.932;10.980;2022-07-29T09:39:00;6.53;;;3.50;;
29210;SDS011;16250;49.932;10.980;2022-07-29T09:41:28;4.95;;;3.60;;
29210;SDS011;16250;49.932;10.980;2022-07-29T09:43:58;5.05;;;3.47;;
29210;SDS011;16250;49.932;10.980;2022-07-29T09:46:24;4.40;;;3.47;;
29210;SDS011;16250;49.932;10.980;2022-07-29T09:49:06;3.97;;;3.58;;
29210;SDS011;16250;49.932;10.980;2022-07-29T09:51:36;5.35;;;3.70;;
29210;SDS011;16250;49.932;10.980;2022-07-29T09:54:10;4.43;;;3.47;;
29210;SDS011;16250;49.932;10.980;2022-07-29T09:56:47;5.05;;;3.58;;
29210;SDS011;16250;49.932;10.980;2022-07-29T09:59:13;7.95;;;3.72;;
29210;SDS011;16250;49.932;10.980;2022-07-29T10:01:39;4.70;;;3.85;;
29210;SDS011;16250;49.932;10.980;2022-07-29T10:04:05;4.53;;;4.00;;
29210;SDS011;16250;49.932;10.980;2022-07-29T10:06:31;6.40;;;4.13;;
29210;SDS011;16250;49.932;10.980;2022-07-29T10:09:09;4.57;;;3.33;;
29210;SDS011;16250;49.932;10.980;2022-07-29T10:11:35;7.72;;;3.40;;
29210;SDS011;16250;49.932;10.980;2022-07-29T10:14:02;6.00;;;3.25;;
29210;SDS011;16250;49.932;10.980;2022-07-29T10:16:29;5.53;;;3.05;;
29210;SDS011;16250;49.932;10.980;2022-07-29T10:18:58;7.63;;;3.10;;
29210;SDS011;16250;49.932;10.980;2022-07-29T10:21:24;5.82;;;3.00;;
29210;SDS011;16250;49.932;10.980;2022-07-29T10:23:52;7.28;;;3.03;;
29210;SDS011;16250;49.932;10.980;2022-07-29T10:26:25;6.30;;;2.90;;
29210;SDS011;16250;49.932;10.980;2022-07-29T10:28:50;5.32;;;3.45;;
29210;SDS011;16250;49.932;10.980;2022-07-29T10:31:23;6.18;;;3.20;;
29210;SDS011;16250;49.932;10.980;2022-07-29T10:36:50;6.88;;;3.30;;
29210;SDS011;16250;49.932;10.980;2022-07-29T10:39:37;8.23;;;3.85;;
29210;SDS011;16250;49.932;10.980;2022-07-29T10:42:24;7.93;;;3.00;;
29210;SDS011;16250;49.932;10.980;2022-07-29T10:44:52;10.63;;;3.58;;
29210;SDS011;16250;49.932;10.980;2022-07-29T10:47:25;6.55;;;3.58;;
29210;SDS011;16250;49.932;10.980;2022-07-29T10:49:58;8.38;;;3.97;;
29210;SDS011;16250;49.932;10.980;2022-07-29T10:55:38;5.38;;;3.92;;
29210;SDS011;16250;49.932;10.980;2022-07-29T11:00:40;6.18;;;3.60;;
29210;SDS011;16250;49.932;10.980;2022-07-29T11:03:06;5.45;;;4.00;;
29210;SDS011;16250;49.932;10.980;2022-07-29T11:08:18;4.32;;;3.63;;
29210;SDS011;16250;49.932;10.980;2022-07-29T11:10:49;4.40;;;3.60;;
29210;SDS011;16250;49.932;10.980;2022-07-29T11:13:44;7.60;;;4.10;;
29210;SDS011;16250;49.932;10.980;2022-07-29T11:16:19;6.30;;;3.90;;
29210;SDS011;16250;49.932;10.980;2022-07-29T11:21:41;4.53;;;3.42;;
29210;SDS011;16250;49.932;10.980;2022-07-29T11:24:12;7.78;;;4.00;;
29210;SDS011;16250;49.932;10.980;2022-07-29T11:26:39;6.60;;;3.75;;
29210;SDS011;16250;49.932;10.980;2022-07-29T11:29:12;8.52;;;4.03;;
29210;SDS011;16250;49.932;10.980;2022-07-29T11:31:44;4.85;;;3.60;;
29210;SDS011;16250;49.932;10.980;2022-07-29T11:34:20;5.57;;;3.50;;
29210;SDS011;16250;49.932;10.980;2022-07-29T11:39:36;6.10;;;4.03;;
29210;SDS011;16250;49.932;10.980;2022-07-29T11:47:41;5.05;;;3.78;;
29210;SDS011;16250;49.932;10.980;2022-07-29T11:50:12;5.85;;;3.35;;
29210;SDS011;16250;49.932;10.980;2022-07-29T11:52:43;6.47;;;3.38;;
29210;SDS011;16250;49.932;10.980;2022-07-29T11:55:18;5.05;;;3.47;;
29210;SDS011;16250;49.932;10.980;2022-07-29T12:00:20;4.38;;;2.88;;
29210;SDS011;16250;49.932;10.980;2022-07-29T12:02:48;3.55;;;3.20;;
29210;SDS011;16250;49.932;10.980;2022-07-29T12:05:13;5.60;;;3.50;;
29210;SDS011;16250;49.932;10.980;2022-07-29T12:07:39;5.38;;;4.07;;
29210;SDS011;16250;49.932;10.980;2022-07-29T12:10:06;4.45;;;3.40;;
29210;SDS011;16250;49.932;10.980;2022-07-29T12:12:33;7.00;;;3.60;;
29210;SDS011;16250;49.932;10.980;2022-07-29T12:15:20;3.80;;;3.45;;
29210;SDS011;16250;49.932;10.980;2022-07-29T12:20:11;4.28;;;3.88;;
29210;SDS011;16250;49.932;10.980;2022-07-29T12:22:39;4.20;;;3.35;;
29210;SDS011;16250;49.932;10.980;2022-07-29T12:25:09;5.20;;;4.10;;
29210;SDS011;16250;49.932;10.980;2022-07-29T12:27:43;6.00;;;4.00;;
29210;SDS011;16250;49.932;10.980;2022-07-29T12:30:11;5.70;;;4.03;;
29210;SDS011;16250;49.932;10.980;2022-07-29T12:32:39;4.75;;;3.97;;
29210;SDS011;16250;49.932;10.980;2022-07-29T12:35:11;6.13;;;4.28;;
29210;SDS011;16250;49.932;10.980;2022-07-29T12:37:40;5.75;;;4.70;;
29210;SDS011;16250;49.932;10.980;2022-07-29T12:40:07;6.35;;;4.55;;
29210;SDS011;16250;49.932;10.980;2022-07-29T12:42:34;4.93;;;3.90;;
29210;SDS011;16250;49.932;10.980;2022-07-29T12:45:00;6.03;;;4.22;;
29210;SDS011;16250;49.932;10.980;2022-07-29T12:47:26;7.35;;;4.53;;
29210;SDS011;16250;49.932;10.980;2022-07-29T12:52:42;5.57;;;4.38;;
29210;SDS011;16250;49.932;10.980;2022-07-29T12:55:09;5.65;;;4.97;;
29210;SDS011;16250;49.932;10.980;2022-07-29T12:57:48;7.30;;;4.93;;
29210;SDS011;16250;49.932;10.980;2022-07-29T13:00:21;5.85;;;4.35;;
29210;SDS011;16250;49.932;10.980;2022-07-29T13:02:58;5.95;;;4.47;;
29210;SDS011;16250;49.932;10.980;2022-07-29T13:05:38;6.25;;;4.75;;
29210;SDS011;16250;49.932;10.980;2022-07-29T13:08:12;8.75;;;4.40;;
29210;SDS011;16250;49.932;10.980;2022-07-29T13:10:43;8.23;;;5.13;;
29210;SDS011;16250;49.932;10.980;2022-07-29T13:15:37;6.07;;;4.40;;
29210;SDS011;16250;49.932;10.980;2022-07-29T13:18:04;5.80;;;4.07;;
29210;SDS011;16250;49.932;10.980;2022-07-29T13:20:50;7.10;;;4.13;;
29210;SDS011;16250;49.932;10.980;2022-07-29T13:23:16;7.00;;;4.63;;
29210;SDS011;16250;49.932;10.980;2022-07-29T13:25:41;5.15;;;4.65;;
29210;SDS011;16250;49.932;10.980;2022-07-29T13:28:07;5.68;;;4.20;;
29210;SDS011;16250;49.932;10.980;2022-07-29T13:30:32;5.78;;;4.10;;
29210;SDS011;16250;49.932;10.980;2022-07-29T13:32:58;6.22;;;4.38;;
29210;SDS011;16250;49.932;10.980;2022-07-29T13:35:24;4.93;;;3.60;;
29210;SDS011;16250;49.932;10.980;2022-07-29T13:37:49;4.70;;;3.85;;
29210;SDS011;16250;49.932;10.980;2022-07-29T13:40:15;5.47;;;4.20;;
29210;SDS011;16250;49.932;10.980;2022-07-29T13:42:41;6.65;;;3.92;;
29210;SDS011;16250;49.932;10.980;2022-07-29T13:45:07;6.25;;;3.70;;
29210;SDS011;16250;49.932;10.980;2022-07-29T13:47:34;6.75;;;4.63;;
29210;SDS011;16250;49.932;10.980;2022-07-29T13:50:00;5.72;;;4.35;;
29210;SDS011;16250;49.932;10.980;2022-07-29T13:52:26;6.25;;;4.30;;
29210;SDS011;16250;49.932;10.980;2022-07-29T13:54:52;7.53;;;4.53;;
29210;SDS011;16250;49.932;10.980;2022-07-29T13:57:17;5.93;;;3.70;;
29210;SDS011;16250;49.932;10.980;2022-07-29T13:59:43;6.95;;;4.30;;
29210;SDS011;16250;49.932;10.980;2022-07-29T14:02:09;8.73;;;4.43;;
29210;SDS011;16250;49.932;10.980;2022-07-29T14:04:35;6.38;;;4.10;;
29210;SDS011;16250;49.932;10.980;2022-07-29T14:07:01;5.07;;;4.03;;
29210;SDS011;16250;49.932;10.980;2022-07-29T14:09:27;5.15;;;4.15;;
29210;SDS011;16250;49.932;10.980;2022-07-29T14:11:53;4.80;;;4.18;;
29210;SDS011;16250;49.932;10.980;2022-07-29T14:14:19;5.88;;;4.38;;
29210;SDS011;16250;49.932;10.980;2022-07-29T14:16:45;6.47;;;4.25;;
29210;SDS011;16250;49.932;10.980;2022-07-29T14:19:11;6.93;;;3.85;;
29210;SDS011;16250;49.932;10.980;2022-07-29T14:21:37;7.80;;;4.10;;
29210;SDS011;16250;49.932;10.980;2022-07-29T14:24:04;6.75;;;4.28;;
29210;SDS011;16250;49.932;10.980;2022-07-29T14:26:30;4.60;;;4.20;;
29210;SDS011;16250;49.932;10.980;2022-07-29T14:28:56;8.00;;;4.30;;
29210;SDS011;16250;49.932;10.980;2022-07-29T14:31:21;8.15;;;4.55;;
29210;SDS011;16250;49.932;10.980;2022-07-29T14:33:47;6.15;;;4.45;;
29210;SDS011;16250;49.932;10.980;2022-07-29T14:36:13;4.45;;;3.97;;
29210;SDS011;16250;49.932;10.980;2022-07-29T14:38:38;5.03;;;4.30;;
29210;SDS011;16250;49.932;10.980;2022-07-29T14:41:05;6.57;;;3.80;;
29210;SDS011;16250;49.932;10.980;2022-07-29T14:43:32;4.47;;;4.00;;
29210;SDS011;16250;49.932;10.980;2022-07-29T14:45:59;4.63;;;4.10;;
29210;SDS011;16250;49.932;10.980;2022-07-29T14:48:25;4.50;;;4.10;;
29210;SDS011;16250;49.932;10.980;2022-07-29T14:50:50;5.60;;;3.97;;
29210;SDS011;16250;49.932;10.980;2022-07-29T14:53:16;6.10;;;3.80;;
29210;SDS011;16250;49.932;10.980;2022-07-29T14:55:41;6.10;;;4.28;;
29210;SDS011;16250;49.932;10.980;2022-07-29T14:58:07;5.72;;;4.57;;
29210;SDS011;16250;49.932;10.980;2022-07-29T15:00:33;5.05;;;4.30;;
29210;SDS011;16250;49.932;10.980;2022-07-29T15:02:59;5.18;;;4.68;;
29210;SDS011;16250;49.932;10.980;2022-07-29T15:05:26;8.98;;;4.60;;
29210;SDS011;16250;49.932;10.980;2022-07-29T15:07:52;5.53;;;4.13;;
29210;SDS011;16250;49.932;10.980;2022-07-29T15:10:18;4.95;;;4.55;;
29210;SDS011;16250;49.932;10.980;2022-07-29T15:12:44;5.43;;;4.22;;
29210;SDS011;16250;49.932;10.980;2022-07-29T15:15:10;4.90;;;4.40;;
29210;SDS011;16250;49.932;10.980;2022-07-29T15:17:35;5.32;;;3.70;;
29210;SDS011;16250;49.932;10.980;2022-07-29T15:20:01;7.88;;;3.65;;
29210;SDS011;16250;49.932;10.980;2022-07-29T15:22:27;12.68;;;3.78;;
29210;SDS011;16250;49.932;10.980;2022-07-29T15:24:52;6.03;;;2.83;;
29210;SDS011;16250;49.932;10.980;2022-07-29T15:27:18;6.75;;;2.92;;
29210;SDS011;16250;49.932;10.980;2022-07-29T15:29:44;8.30;;;2.30;;
29210;SDS011;16250;49.932;10.980;2022-07-29T15:32:10;7.45;;;1.90;;